createdAt,value
2019-03-19T00:00:25.631Z,64.51
2019-03-19T00:01:25.603Z,65.12
2019-03-19T00:02:25.593Z,64.51
2019-03-19T00:03:25.583Z,64.30
2019-03-19T00:04:25.569Z,64.81
2019-03-19T00:05:25.577Z,64.92
2019-03-19T00:06:25.547Z,64.81
2019-03-19T00:07:25.539Z,65.33
2019-03-19T00:08:25.524Z,65.44
2019-03-19T00:09:25.511Z,65.85
2019-03-19T00:10:25.519Z,65.44
2019-03-19T00:11:25.489Z,65.57
2019-03-19T00:12:25.479Z,65.75
2019-03-19T00:13:25.466Z,64.81
2019-03-19T00:14:25.454Z,65.44
2019-03-19T00:15:25.459Z,65.64
2019-03-19T00:16:25.432Z,65.47
2019-03-19T00:17:25.423Z,64.92
2019-03-19T00:18:25.412Z,65.23
2019-03-19T00:19:25.402Z,64.81
2019-03-19T00:20:25.405Z,65.23
2019-03-19T00:21:25.376Z,65.64
2019-03-19T00:22:25.841Z,65.64
2019-03-19T00:23:25.352Z,65.64
2019-03-19T00:24:25.343Z,64.92
2019-03-19T00:25:29.865Z,65.54
2019-03-19T00:26:26.318Z,64.71
2019-03-19T00:27:25.310Z,65.02
2019-03-19T00:28:25.293Z,64.92
2019-03-19T00:29:25.283Z,65.12
2019-03-19T00:30:25.289Z,64.40
2019-03-19T00:31:25.259Z,64.71
2019-03-19T00:32:25.256Z,64.30
2019-03-19T00:33:25.237Z,64.30
2019-03-19T00:34:25.228Z,64.30
2019-03-19T00:35:25.228Z,64.61
2019-03-19T00:36:25.203Z,64.92
2019-03-19T00:37:25.193Z,64.81
2019-03-19T00:38:25.182Z,65.12
2019-03-19T00:39:25.170Z,65.23
2019-03-19T00:40:25.172Z,65.02
2019-03-19T00:41:25.145Z,65.23
2019-03-19T00:42:25.135Z,64.81
2019-03-19T00:43:25.123Z,64.71
2019-03-19T00:44:25.113Z,65.02
2019-03-19T00:45:25.115Z,65.54
2019-03-19T00:46:25.090Z,64.81
2019-03-19T00:47:25.077Z,65.12
2019-03-19T00:48:25.066Z,65.12
2019-03-19T00:49:25.054Z,65.02
2019-03-19T00:50:25.059Z,64.51
2019-03-19T00:51:25.032Z,65.02
2019-03-19T00:52:25.020Z,65.12
2019-03-19T00:53:25.017Z,65.02
2019-03-19T00:54:25.037Z,64.92
2019-03-19T00:55:25.003Z,65.12
2019-03-19T00:56:24.974Z,65.64
2019-03-19T00:57:24.962Z,65.88
2019-03-19T00:58:24.951Z,65.99
2019-03-19T00:59:24.940Z,65.67
2019-03-19T01:00:24.945Z,65.36
2019-03-19T01:01:24.917Z,65.23
2019-03-19T01:02:24.905Z,65.23
2019-03-19T01:03:24.895Z,65.44
2019-03-19T01:04:24.882Z,64.81
2019-03-19T01:05:24.888Z,65.26
2019-03-19T01:06:24.861Z,65.88
2019-03-19T01:07:24.849Z,65.33
2019-03-19T01:08:24.841Z,65.67
2019-03-19T01:09:24.836Z,65.78
2019-03-19T01:10:24.838Z,65.26
2019-03-19T01:11:24.802Z,65.57
2019-03-19T01:12:24.792Z,65.67
2019-03-19T01:13:24.780Z,65.36
2019-03-19T01:14:24.768Z,65.78
2019-03-19T01:15:24.772Z,65.50
2019-03-19T01:16:24.749Z,65.29
2019-03-19T01:17:24.736Z,65.67
2019-03-19T01:18:24.723Z,65.60
2019-03-19T01:19:24.709Z,66.29
2019-03-19T01:20:24.716Z,66.22
2019-03-19T01:21:24.689Z,65.47
2019-03-19T01:22:24.677Z,65.70
2019-03-19T01:23:24.665Z,65.78
2019-03-19T01:24:24.656Z,65.57
2019-03-19T01:25:24.658Z,65.50
2019-03-19T01:26:24.632Z,65.81
2019-03-19T01:27:24.620Z,65.50
2019-03-19T01:28:24.608Z,65.50
2019-03-19T01:29:24.614Z,66.02
2019-03-19T01:30:24.607Z,66.42
2019-03-19T01:31:24.580Z,65.50
2019-03-19T01:32:24.563Z,64.95
2019-03-19T01:33:24.553Z,65.50
2019-03-19T01:34:24.545Z,65.60
2019-03-19T01:35:24.546Z,65.50
2019-03-19T01:36:24.517Z,65.29
2019-03-19T01:37:24.507Z,65.81
2019-03-19T01:38:24.495Z,66.12
2019-03-19T01:39:24.482Z,66.32
2019-03-19T01:40:24.489Z,66.22
2019-03-19T01:41:24.463Z,66.02
2019-03-19T01:42:24.448Z,65.60
2019-03-19T01:43:24.436Z,66.32
2019-03-19T01:44:24.425Z,66.32
2019-03-19T01:45:24.431Z,66.53
2019-03-19T01:46:24.402Z,66.42
2019-03-19T01:47:24.391Z,66.32
2019-03-19T01:48:24.379Z,66.32
2019-03-19T01:49:24.378Z,66.84
2019-03-19T01:50:24.374Z,66.42
2019-03-19T01:51:24.346Z,66.32
2019-03-19T01:52:24.337Z,66.74
2019-03-19T01:53:24.326Z,66.74
2019-03-19T01:54:24.316Z,66.97
2019-03-19T01:55:25.654Z,66.77
2019-03-19T01:56:24.290Z,66.87
2019-03-19T01:57:24.280Z,66.66
2019-03-19T01:58:24.269Z,67.18
2019-03-19T01:59:24.257Z,67.57
2019-03-19T02:00:24.260Z,66.84
2019-03-19T02:01:24.234Z,66.56
2019-03-19T02:02:24.222Z,66.97
2019-03-19T02:03:24.212Z,66.77
2019-03-19T02:04:24.198Z,67.60
2019-03-19T02:05:24.202Z,66.77
2019-03-19T02:06:24.179Z,67.29
2019-03-19T02:07:24.167Z,67.60
2019-03-19T02:08:24.155Z,67.08
2019-03-19T02:09:24.143Z,67.08
2019-03-19T02:10:24.146Z,66.97
2019-03-19T02:11:24.119Z,67.29
2019-03-19T02:12:24.108Z,67.39
2019-03-19T02:13:24.098Z,67.32
2019-03-19T02:14:24.085Z,67.52
2019-03-19T02:15:24.091Z,67.32
2019-03-19T02:16:24.065Z,67.42
2019-03-19T02:17:24.052Z,67.32
2019-03-19T02:18:24.044Z,67.29
2019-03-19T02:19:24.031Z,67.21
2019-03-19T02:20:24.034Z,67.52
2019-03-19T02:21:24.006Z,67.42
2019-03-19T02:22:23.999Z,67.32
2019-03-19T02:23:23.984Z,67.42
2019-03-19T02:24:23.972Z,67.32
2019-03-19T02:25:23.975Z,67.32
2019-03-19T02:26:23.959Z,67.42
2019-03-19T02:27:23.939Z,67.42
2019-03-19T02:28:23.927Z,67.42
2019-03-19T02:29:23.917Z,67.94
2019-03-19T02:30:23.925Z,67.11
2019-03-19T02:31:23.898Z,67.21
2019-03-19T02:32:23.888Z,67.32
2019-03-19T02:33:23.872Z,67.11
2019-03-19T02:34:23.862Z,67.32
2019-03-19T02:35:23.880Z,67.83
2019-03-19T02:36:23.841Z,67.83
2019-03-19T02:37:23.829Z,67.97
2019-03-19T02:38:23.840Z,67.32
2019-03-19T02:39:23.807Z,67.21
2019-03-19T02:40:23.813Z,67.52
2019-03-19T02:41:23.781Z,67.97
2019-03-19T02:42:23.786Z,67.86
2019-03-19T02:43:23.773Z,67.73
2019-03-19T02:44:23.754Z,67.86
2019-03-19T02:45:23.772Z,67.86
2019-03-19T02:46:32.002Z,67.97
2019-03-19T02:47:32.030Z,67.66
2019-03-19T02:48:32.073Z,67.66
2019-03-19T02:49:23.694Z,68.07
2019-03-19T02:50:32.470Z,67.66
2019-03-19T02:51:32.147Z,68.07
2019-03-19T02:52:33.686Z,67.45
2019-03-19T02:53:32.227Z,68.38
2019-03-19T02:54:23.640Z,68.49
2019-03-19T02:55:32.823Z,67.45
2019-03-19T02:56:32.683Z,68.49
2019-03-19T02:57:24.608Z,68.59
2019-03-19T02:58:23.592Z,68.49
2019-03-19T02:59:23.580Z,68.28
2019-03-19T03:00:23.583Z,68.28
2019-03-19T03:01:23.556Z,68.28
2019-03-19T03:02:23.545Z,67.97
2019-03-19T03:03:23.563Z,68.59
2019-03-19T03:04:23.525Z,68.59
2019-03-19T03:05:23.531Z,68.28
2019-03-19T03:06:23.502Z,68.80
2019-03-19T03:07:23.489Z,68.49
2019-03-19T03:08:23.481Z,68.18
2019-03-19T03:09:23.482Z,68.90
2019-03-19T03:10:23.472Z,69.01
2019-03-19T03:11:23.447Z,69.11
2019-03-19T03:12:23.436Z,69.21
2019-03-19T03:13:23.422Z,68.90
2019-03-19T03:14:23.412Z,68.90
2019-03-19T03:15:23.416Z,69.24
2019-03-19T03:16:23.389Z,68.80
2019-03-19T03:17:23.379Z,69.21
2019-03-19T03:18:23.372Z,69.35
2019-03-19T03:19:23.362Z,69.14
2019-03-19T03:20:23.362Z,69.35
2019-03-19T03:21:23.391Z,69.35
2019-03-19T03:22:23.321Z,69.45
2019-03-19T03:23:23.313Z,69.35
2019-03-19T03:24:23.299Z,69.24
2019-03-19T03:25:23.309Z,69.66
2019-03-19T03:26:23.292Z,69.14
2019-03-19T03:27:23.272Z,69.14
2019-03-19T03:28:23.254Z,69.04
2019-03-19T03:29:23.244Z,69.04
2019-03-19T03:30:23.290Z,69.35
2019-03-19T03:31:23.341Z,69.66
2019-03-19T03:32:23.219Z,69.56
2019-03-19T03:33:23.199Z,69.66
2019-03-19T03:34:23.190Z,69.14
2019-03-19T03:35:23.198Z,68.93
2019-03-19T03:36:23.165Z,69.14
2019-03-19T03:37:23.163Z,69.76
2019-03-19T03:38:23.146Z,69.35
2019-03-19T03:39:23.130Z,68.93
2019-03-19T03:40:23.140Z,68.93
2019-03-19T03:41:23.112Z,69.24
2019-03-19T03:42:23.098Z,68.93
2019-03-19T03:43:23.089Z,69.76
2019-03-19T03:44:23.073Z,69.56
2019-03-19T03:45:23.080Z,69.24
2019-03-19T03:46:23.049Z,69.66
2019-03-19T03:47:23.045Z,69.35
2019-03-19T03:48:23.030Z,69.56
2019-03-19T03:49:23.019Z,69.66
2019-03-19T03:50:23.026Z,69.97
2019-03-19T03:51:22.994Z,69.76
2019-03-19T03:52:22.986Z,69.24
2019-03-19T03:53:22.972Z,69.76
2019-03-19T03:54:22.965Z,69.76
2019-03-19T03:55:22.965Z,69.04
2019-03-19T03:56:22.940Z,69.35
2019-03-19T03:57:22.933Z,69.87
2019-03-19T03:58:22.920Z,69.56
2019-03-19T03:59:22.905Z,69.66
2019-03-19T04:00:22.908Z,69.04
2019-03-19T04:01:22.882Z,68.93
2019-03-19T04:02:22.873Z,69.66
2019-03-19T04:03:22.865Z,69.14
2019-03-19T04:04:22.861Z,68.83
2019-03-19T04:05:22.918Z,69.56
2019-03-19T04:06:22.826Z,69.97
2019-03-19T04:07:22.846Z,69.35
2019-03-19T04:08:22.811Z,69.35
2019-03-19T04:09:22.793Z,69.76
2019-03-19T04:10:22.801Z,68.93
2019-03-19T04:11:22.770Z,69.04
2019-03-19T04:12:22.760Z,69.66
2019-03-19T04:13:22.754Z,69.66
2019-03-19T04:14:22.744Z,69.56
2019-03-19T04:15:22.753Z,68.83
2019-03-19T04:16:22.724Z,69.04
2019-03-19T04:17:22.704Z,69.04
2019-03-19T04:18:22.709Z,68.93
2019-03-19T04:19:22.684Z,68.93
2019-03-19T04:20:22.701Z,69.24
2019-03-19T04:21:22.658Z,69.14
2019-03-19T04:22:22.651Z,69.53
2019-03-19T04:23:22.648Z,68.93
2019-03-19T04:24:22.629Z,69.53
2019-03-19T04:25:22.633Z,69.42
2019-03-19T04:26:22.616Z,69.04
2019-03-19T04:27:22.593Z,69.76
2019-03-19T04:28:22.580Z,69.56
2019-03-19T04:29:22.568Z,69.04
2019-03-19T04:30:22.573Z,68.93
2019-03-19T04:31:22.552Z,69.63
2019-03-19T04:32:22.543Z,69.63
2019-03-19T04:33:22.533Z,69.63
2019-03-19T04:34:22.514Z,69.45
2019-03-19T04:35:22.517Z,69.53
2019-03-19T04:36:22.494Z,69.63
2019-03-19T04:37:22.482Z,69.42
2019-03-19T04:38:22.474Z,69.76
2019-03-19T04:39:22.463Z,69.32
2019-03-19T04:40:22.463Z,69.32
2019-03-19T04:41:22.434Z,69.11
2019-03-19T04:42:22.422Z,69.84
2019-03-19T04:43:22.412Z,69.42
2019-03-19T04:44:22.400Z,69.01
2019-03-19T04:45:22.404Z,69.56
2019-03-19T04:46:22.377Z,69.76
2019-03-19T04:47:22.369Z,69.66
2019-03-19T04:48:22.360Z,68.90
2019-03-19T04:49:22.343Z,69.11
2019-03-19T04:50:22.347Z,69.42
2019-03-19T04:51:22.321Z,69.45
2019-03-19T04:52:22.311Z,69.56
2019-03-19T04:53:24.230Z,69.66
2019-03-19T04:54:22.287Z,69.45
2019-03-19T04:55:22.293Z,69.45
2019-03-19T04:56:22.270Z,69.76
2019-03-19T04:57:26.720Z,69.66
2019-03-19T04:58:22.246Z,70.46
2019-03-19T04:59:22.235Z,69.94
2019-03-19T05:00:22.236Z,69.32
2019-03-19T05:01:22.212Z,69.84
2019-03-19T05:02:22.198Z,70.25
2019-03-19T05:03:22.186Z,70.56
2019-03-19T05:04:22.175Z,70.36
2019-03-19T05:05:22.178Z,70.56
2019-03-19T05:06:22.211Z,70.25
2019-03-19T05:07:22.141Z,70.87
2019-03-19T05:08:22.131Z,71.28
2019-03-19T05:09:22.116Z,70.46
2019-03-19T05:10:22.123Z,70.76
2019-03-19T05:11:22.098Z,70.76
2019-03-19T05:12:22.083Z,70.87
2019-03-19T05:13:22.075Z,70.97
2019-03-19T05:14:22.072Z,70.97
2019-03-19T05:15:22.068Z,71.39
2019-03-19T05:16:22.039Z,71.18
2019-03-19T05:17:22.030Z,72.11
2019-03-19T05:18:22.018Z,72.63
2019-03-19T05:19:22.006Z,72.11
2019-03-19T05:20:22.009Z,71.80
2019-03-19T05:21:21.985Z,71.91
2019-03-19T05:22:21.971Z,71.39
2019-03-19T05:23:21.959Z,71.59
2019-03-19T05:24:21.953Z,72.22
2019-03-19T05:25:21.951Z,72.01
2019-03-19T05:26:21.926Z,72.42
2019-03-19T05:27:21.917Z,71.91
2019-03-19T05:28:21.903Z,71.39
2019-03-19T05:29:21.896Z,71.59
2019-03-19T05:30:21.896Z,71.94
2019-03-19T05:31:21.870Z,71.84
2019-03-19T05:32:21.862Z,72.25
2019-03-19T05:33:21.847Z,72.25
2019-03-19T05:34:21.837Z,71.84
2019-03-19T05:35:21.845Z,71.70
2019-03-19T05:36:21.815Z,71.39
2019-03-19T05:37:21.804Z,72.01
2019-03-19T05:38:21.791Z,72.11
2019-03-19T05:39:21.782Z,71.49
2019-03-19T05:40:21.786Z,71.80
2019-03-19T05:41:21.760Z,72.01
2019-03-19T05:42:21.747Z,72.53
2019-03-19T05:43:21.736Z,72.63
2019-03-19T05:44:21.731Z,73.15
2019-03-19T05:45:21.735Z,72.94
2019-03-19T05:46:21.702Z,72.84
2019-03-19T05:47:21.690Z,73.15
2019-03-19T05:48:21.680Z,72.63
2019-03-19T05:49:21.669Z,72.53
2019-03-19T05:50:21.677Z,73.46
2019-03-19T05:51:21.648Z,72.42
2019-03-19T05:52:21.640Z,72.74
2019-03-19T05:53:21.624Z,73.15
2019-03-19T05:54:21.611Z,73.46
2019-03-19T05:55:21.620Z,72.94
2019-03-19T05:56:21.590Z,73.25
2019-03-19T05:57:21.578Z,73.36
2019-03-19T05:58:21.567Z,73.36
2019-03-19T05:59:21.555Z,72.94
2019-03-19T06:00:21.562Z,72.53
2019-03-19T06:01:21.534Z,72.53
2019-03-19T06:02:21.522Z,72.74
2019-03-19T06:03:21.514Z,72.94
2019-03-19T06:04:21.503Z,72.94
2019-03-19T06:05:21.658Z,72.71
2019-03-19T06:06:21.474Z,72.63
2019-03-19T06:07:21.464Z,72.29
2019-03-19T06:08:21.454Z,72.39
2019-03-19T06:09:21.443Z,72.08
2019-03-19T06:10:21.445Z,71.46
2019-03-19T06:11:21.420Z,70.63
2019-03-19T06:12:21.453Z,71.98
2019-03-19T06:13:21.396Z,71.25
2019-03-19T06:14:21.386Z,71.46
2019-03-19T06:15:21.394Z,72.42
2019-03-19T06:16:21.365Z,71.88
2019-03-19T06:17:21.352Z,71.67
2019-03-19T06:18:21.340Z,71.15
2019-03-19T06:19:21.329Z,71.67
2019-03-19T06:20:21.335Z,71.77
2019-03-19T06:21:21.307Z,71.22
2019-03-19T06:22:21.296Z,71.12
2019-03-19T06:23:21.286Z,70.70
2019-03-19T06:24:21.789Z,71.43
2019-03-19T06:25:21.306Z,71.43
2019-03-19T06:26:21.271Z,71.22
2019-03-19T06:27:21.254Z,70.81
2019-03-19T06:28:21.230Z,71.43
2019-03-19T06:29:21.218Z,71.43
2019-03-19T06:30:21.233Z,70.70
2019-03-19T06:31:21.197Z,71.43
2019-03-19T06:32:21.183Z,71.84
2019-03-19T06:33:21.193Z,71.53
2019-03-19T06:34:21.160Z,71.43
2019-03-19T06:35:21.164Z,71.53
2019-03-19T06:36:21.141Z,70.70
2019-03-19T06:37:21.128Z,71.73
2019-03-19T06:38:21.119Z,72.15
2019-03-19T06:39:21.105Z,72.05
2019-03-19T06:40:21.115Z,72.56
2019-03-19T06:41:21.082Z,71.84
2019-03-19T06:42:21.070Z,72.25
2019-03-19T06:43:21.060Z,72.67
2019-03-19T06:44:21.050Z,72.56
2019-03-19T06:45:23.029Z,72.46
2019-03-19T06:46:21.026Z,72.77
2019-03-19T06:47:21.017Z,72.25
2019-03-19T06:48:21.004Z,73.19
2019-03-19T06:49:21.001Z,72.67
2019-03-19T06:50:21.023Z,72.85
2019-03-19T06:51:20.969Z,72.94
2019-03-19T06:52:20.962Z,72.94
2019-03-19T06:53:20.950Z,72.94
2019-03-19T06:54:20.937Z,72.94
2019-03-19T06:55:20.942Z,72.43
2019-03-19T06:56:20.913Z,72.60
2019-03-19T06:57:20.902Z,72.50
2019-03-19T06:58:20.891Z,71.98
2019-03-19T06:59:20.881Z,71.57
2019-03-19T07:00:20.885Z,71.22
2019-03-19T07:01:20.859Z,70.50
2019-03-19T07:02:20.845Z,71.43
2019-03-19T07:03:20.838Z,70.47
2019-03-19T07:04:20.824Z,70.57
2019-03-19T07:05:20.833Z,69.74
2019-03-19T07:06:20.804Z,70.16
2019-03-19T07:07:20.798Z,69.40
2019-03-19T07:08:20.779Z,69.40
2019-03-19T07:09:20.770Z,68.78
2019-03-19T07:10:20.772Z,68.88
2019-03-19T07:11:20.747Z,69.40
2019-03-19T07:12:20.736Z,69.71
2019-03-19T07:13:20.722Z,69.20
2019-03-19T07:14:20.715Z,68.78
2019-03-19T07:15:20.715Z,69.17
2019-03-19T07:16:20.687Z,69.48
2019-03-19T07:17:20.676Z,69.06
2019-03-19T07:18:20.664Z,69.06
2019-03-19T07:19:20.654Z,68.85
2019-03-19T07:20:20.662Z,69.06
2019-03-19T07:21:20.631Z,68.65
2019-03-19T07:22:20.630Z,68.51
2019-03-19T07:23:20.611Z,68.00
2019-03-19T07:24:20.597Z,67.48
2019-03-19T07:25:20.600Z,67.03
2019-03-19T07:26:20.572Z,67.03
2019-03-19T07:27:20.561Z,67.00
2019-03-19T07:28:22.315Z,66.56
2019-03-19T07:29:20.537Z,66.05
2019-03-19T07:30:20.545Z,65.22
2019-03-19T07:31:30.350Z,65.22
2019-03-19T07:32:21.505Z,65.09
2019-03-19T07:33:20.526Z,64.75
2019-03-19T07:34:20.483Z,62.77
2019-03-19T07:35:20.566Z,62.51
2019-03-19T07:36:20.458Z,61.27
2019-03-19T07:37:20.448Z,60.70
2019-03-19T07:38:20.448Z,59.95
2019-03-19T07:39:20.425Z,59.72
2019-03-19T07:40:20.429Z,59.20
2019-03-19T07:41:20.402Z,58.26
2019-03-19T07:42:20.390Z,58.26
2019-03-19T07:43:20.381Z,58.18
2019-03-19T07:44:20.368Z,58.80
2019-03-19T07:45:20.372Z,58.07
2019-03-19T07:46:20.352Z,58.56
2019-03-19T07:47:20.334Z,58.49
2019-03-19T07:48:20.323Z,58.62
2019-03-19T07:49:20.311Z,58.31
2019-03-19T07:50:20.316Z,58.21
2019-03-19T07:51:20.308Z,59.26
2019-03-19T07:52:20.275Z,59.59
2019-03-19T07:53:20.266Z,59.83
2019-03-19T07:54:20.252Z,59.63
2019-03-19T07:55:20.261Z,58.54
2019-03-19T07:56:20.231Z,58.21
2019-03-19T07:57:20.219Z,58.28
2019-03-19T07:58:31.355Z,57.54
2019-03-19T07:59:21.195Z,56.71
2019-03-19T08:00:20.203Z,56.69
2019-03-19T08:01:20.173Z,55.85
2019-03-19T08:02:20.160Z,55.92
2019-03-19T08:03:20.150Z,55.62
2019-03-19T08:04:20.140Z,54.79
2019-03-19T08:05:20.149Z,54.77
2019-03-19T08:06:20.115Z,55.10
2019-03-19T08:07:20.106Z,55.00
2019-03-19T08:08:20.095Z,54.79
2019-03-19T08:09:20.170Z,54.25
2019-03-19T08:10:20.089Z,54.25
2019-03-19T08:11:20.058Z,54.36
2019-03-19T08:12:20.047Z,54.05
2019-03-19T08:13:20.037Z,54.13
2019-03-19T08:14:20.026Z,53.62
2019-03-19T08:15:20.043Z,52.70
2019-03-19T08:16:27.273Z,53.08
2019-03-19T08:17:21.040Z,52.75
2019-03-19T08:18:19.980Z,51.83
2019-03-19T08:19:19.978Z,51.81
2019-03-19T08:20:19.975Z,50.66
2019-03-19T08:21:19.954Z,51.27
2019-03-19T08:22:20.018Z,52.03
2019-03-19T08:23:19.922Z,52.26
2019-03-19T08:24:19.910Z,52.16
2019-03-19T08:25:19.918Z,52.59
2019-03-19T08:26:19.891Z,53.13
2019-03-19T08:27:19.877Z,52.95
2019-03-19T08:28:19.866Z,54.38
2019-03-19T08:29:19.855Z,55.21
2019-03-19T08:30:19.868Z,55.30
2019-03-19T08:31:19.831Z,55.10
2019-03-19T08:32:19.821Z,55.10
2019-03-19T08:33:19.814Z,54.87
2019-03-19T08:34:19.797Z,54.57
2019-03-19T08:35:19.804Z,54.67
2019-03-19T08:36:19.776Z,54.57
2019-03-19T08:37:19.763Z,53.08
2019-03-19T08:38:19.754Z,52.95
2019-03-19T08:39:20.805Z,51.81
2019-03-19T08:40:19.748Z,51.98
2019-03-19T08:41:19.724Z,52.01
2019-03-19T08:42:19.710Z,52.52
2019-03-19T08:43:20.448Z,51.91
2019-03-19T08:44:27.490Z,52.95
2019-03-19T08:45:20.688Z,52.67
2019-03-19T08:46:19.664Z,52.78
2019-03-19T08:47:19.650Z,53.11
2019-03-19T08:48:19.639Z,53.39
2019-03-19T08:49:19.629Z,52.75
2019-03-19T08:50:19.631Z,51.60
2019-03-19T08:51:19.605Z,51.93
2019-03-19T08:52:19.594Z,53.62
2019-03-19T08:53:19.583Z,54.25
2019-03-19T08:54:19.576Z,54.69
2019-03-19T08:55:19.575Z,54.08
2019-03-19T08:56:19.548Z,54.41
2019-03-19T08:57:19.548Z,55.66
2019-03-19T08:58:19.531Z,56.00
2019-03-19T08:59:19.514Z,56.71
2019-03-19T09:00:19.524Z,56.51
2019-03-19T09:01:19.494Z,57.26
2019-03-19T09:02:19.481Z,57.56
2019-03-19T09:03:19.469Z,58.31
2019-03-19T09:04:19.459Z,59.34
2019-03-19T09:05:19.473Z,59.54
2019-03-19T09:06:19.436Z,60.80
2019-03-19T09:07:20.180Z,61.32
2019-03-19T09:08:19.413Z,63.29
2019-03-19T09:09:19.403Z,63.60
2019-03-19T09:10:19.406Z,65.59
2019-03-19T09:11:19.378Z,66.00
2019-03-19T09:12:19.369Z,66.64
2019-03-19T09:13:19.362Z,68.53
2019-03-19T09:14:19.346Z,68.94
2019-03-19T09:15:19.350Z,68.84
2019-03-19T09:16:19.321Z,69.79
2019-03-19T09:17:19.316Z,70.42
2019-03-19T09:18:19.300Z,71.65
2019-03-19T09:19:19.288Z,71.96
2019-03-19T09:20:19.295Z,72.16
2019-03-19T09:21:19.271Z,72.16
2019-03-19T09:22:19.966Z,71.44
2019-03-19T09:23:19.241Z,72.03
2019-03-19T09:24:19.235Z,73.23
2019-03-19T09:25:19.235Z,73.36
2019-03-19T09:26:19.208Z,74.43
2019-03-19T09:27:19.198Z,75.05
2019-03-19T09:28:19.185Z,74.84
2019-03-19T09:29:19.174Z,74.22
2019-03-19T09:30:19.198Z,72.71
2019-03-19T09:31:19.159Z,73.98
2019-03-19T09:32:19.140Z,74.29
2019-03-19T09:33:19.129Z,74.43
2019-03-19T09:34:19.117Z,75.15
2019-03-19T09:35:19.125Z,76.70
2019-03-19T09:36:19.096Z,76.39
2019-03-19T09:37:19.083Z,75.19
2019-03-19T09:38:19.078Z,76.43
2019-03-19T09:39:19.062Z,77.46
2019-03-19T09:40:19.069Z,77.63
2019-03-19T09:41:19.038Z,77.63
2019-03-19T09:42:19.027Z,77.53
2019-03-19T09:43:19.019Z,76.35
2019-03-19T09:44:19.005Z,76.35
2019-03-19T09:45:19.045Z,76.25
2019-03-19T09:46:18.981Z,76.35
2019-03-19T09:47:18.970Z,75.43
2019-03-19T09:48:18.959Z,75.32
2019-03-19T09:49:21.078Z,75.60
2019-03-19T09:50:18.955Z,75.70
2019-03-19T09:51:18.925Z,75.87
2019-03-19T09:52:18.919Z,75.12
2019-03-19T09:53:18.978Z,74.88
2019-03-19T09:54:19.828Z,73.40
2019-03-19T09:55:18.906Z,73.16
2019-03-19T09:56:18.870Z,71.89
2019-03-19T09:57:18.859Z,71.45
2019-03-19T09:58:18.845Z,70.11
2019-03-19T09:59:26.756Z,69.98
2019-03-19T10:00:19.837Z,69.74
2019-03-19T10:01:18.815Z,68.10
2019-03-19T10:02:18.800Z,61.25
2019-03-19T10:03:18.788Z,56.40
2019-03-19T10:04:18.777Z,54.21
2019-03-19T10:05:18.792Z,55.99
2019-03-19T10:06:18.757Z,55.63
2019-03-19T10:07:18.745Z,56.48
2019-03-19T10:08:18.733Z,56.58
2019-03-19T10:09:18.721Z,55.84
2019-03-19T10:10:18.767Z,54.08
2019-03-19T10:11:18.698Z,49.11
2019-03-19T10:12:18.686Z,46.37
2019-03-19T10:13:18.682Z,43.46
2019-03-19T10:14:18.666Z,42.38
2019-03-19T10:15:18.679Z,40.00
2019-03-19T10:16:18.642Z,39.26
2019-03-19T10:17:18.629Z,37.50
2019-03-19T10:18:18.618Z,37.59
2019-03-19T10:19:18.608Z,36.57
2019-03-19T10:20:18.615Z,36.65
2019-03-19T10:21:18.585Z,34.61
2019-03-19T10:22:18.573Z,34.98
2019-03-19T10:23:18.561Z,34.46
2019-03-19T10:24:18.549Z,32.95
2019-03-19T10:25:18.575Z,32.43
2019-03-19T10:26:18.530Z,31.42
2019-03-19T10:27:19.642Z,31.24
2019-03-19T10:28:18.505Z,31.07
2019-03-19T10:29:18.497Z,31.15
2019-03-19T10:30:18.500Z,32.40
2019-03-19T10:31:18.472Z,34.39
2019-03-19T10:32:18.460Z,36.16
2019-03-19T10:33:18.447Z,36.89
2019-03-19T10:34:18.437Z,34.81
2019-03-19T10:35:18.443Z,33.17
2019-03-19T10:36:18.417Z,34.49
2019-03-19T10:37:18.403Z,33.86
2019-03-19T10:38:18.393Z,31.91
2019-03-19T10:39:18.380Z,31.61
2019-03-19T10:40:18.385Z,31.38
2019-03-19T10:41:18.360Z,31.16
2019-03-19T10:42:18.347Z,30.83
2019-03-19T10:43:18.378Z,30.51
2019-03-19T10:44:18.323Z,29.18
2019-03-19T10:45:18.338Z,28.67
2019-03-19T10:46:18.331Z,27.55
2019-03-19T10:47:18.290Z,27.95
2019-03-19T10:48:18.279Z,26.65
2019-03-19T10:49:18.269Z,26.94
2019-03-19T10:50:18.273Z,27.24
2019-03-19T10:51:18.245Z,27.56
2019-03-19T10:52:18.250Z,26.86
2019-03-19T10:53:18.229Z,26.04
2019-03-19T10:54:18.211Z,26.34
2019-03-19T10:55:18.219Z,25.05
2019-03-19T10:56:18.197Z,25.14
2019-03-19T10:57:18.178Z,25.32
2019-03-19T10:58:18.174Z,24.83
2019-03-19T10:59:18.156Z,25.43
2019-03-19T11:00:18.170Z,25.23
2019-03-19T11:01:18.134Z,25.31
2019-03-19T11:02:18.124Z,24.01
2019-03-19T11:03:18.119Z,23.91
2019-03-19T11:04:18.101Z,24.31
2019-03-19T11:05:18.109Z,24.32
2019-03-19T11:06:18.083Z,24.12
2019-03-19T11:07:18.069Z,23.91
2019-03-19T11:08:18.058Z,23.50
2019-03-19T11:09:18.045Z,23.90
2019-03-19T11:10:18.050Z,23.79
2019-03-19T11:11:18.022Z,22.95
2019-03-19T11:12:18.010Z,26.46
2019-03-19T11:13:18.002Z,30.26
2019-03-19T11:14:17.990Z,31.23
2019-03-19T11:15:17.993Z,33.51
2019-03-19T11:16:17.967Z,35.80
2019-03-19T11:17:17.957Z,37.68
2019-03-19T11:18:17.946Z,38.24
2019-03-19T11:19:17.935Z,39.60
2019-03-19T11:20:17.941Z,40.26
2019-03-19T11:21:17.912Z,41.31
2019-03-19T11:22:17.909Z,42.55
2019-03-19T11:23:17.889Z,43.51
2019-03-19T11:24:17.880Z,44.24
2019-03-19T11:25:17.883Z,43.65
2019-03-19T11:26:17.857Z,44.92
2019-03-19T11:27:17.846Z,45.95
2019-03-19T11:28:17.834Z,46.06
2019-03-19T11:29:17.825Z,46.38
2019-03-19T11:30:17.828Z,46.83
2019-03-19T11:31:17.800Z,48.90
2019-03-19T11:32:17.790Z,49.10
2019-03-19T11:33:17.776Z,49.13
2019-03-19T11:34:17.766Z,49.13
2019-03-19T11:35:17.774Z,49.15
2019-03-19T11:36:17.746Z,49.66
2019-03-19T11:37:17.735Z,49.89
2019-03-19T11:38:17.723Z,48.58
2019-03-19T11:39:17.711Z,50.04
2019-03-19T11:40:17.718Z,49.73
2019-03-19T11:41:17.687Z,50.47
2019-03-19T11:42:17.681Z,51.31
2019-03-19T11:43:17.664Z,53.20
2019-03-19T11:44:17.652Z,54.57
2019-03-19T11:45:17.658Z,55.59
2019-03-19T11:46:17.629Z,57.56
2019-03-19T11:47:17.620Z,58.90
2019-03-19T11:48:17.606Z,60.77
2019-03-19T11:49:17.596Z,63.06
2019-03-19T11:50:17.603Z,63.64
2019-03-19T11:51:17.573Z,65.28
2019-03-19T11:52:17.560Z,66.00
2019-03-19T11:53:17.554Z,66.82
2019-03-19T11:54:17.538Z,66.61
2019-03-19T11:55:17.542Z,67.33
2019-03-19T11:56:17.523Z,66.31
2019-03-19T11:57:17.507Z,66.64
2019-03-19T11:58:17.495Z,67.26
2019-03-19T11:59:17.482Z,67.36
2019-03-19T12:00:17.485Z,68.37
2019-03-19T12:01:17.461Z,68.70
2019-03-19T12:02:25.535Z,67.33
2019-03-19T12:03:18.436Z,66.82
2019-03-19T12:04:17.426Z,67.33
2019-03-19T12:05:17.430Z,67.13
2019-03-19T12:06:17.407Z,67.85
2019-03-19T12:07:17.391Z,67.33
2019-03-19T12:08:17.380Z,67.54
2019-03-19T12:09:17.368Z,67.10
2019-03-19T12:10:17.377Z,67.54
2019-03-19T12:11:17.345Z,67.41
2019-03-19T12:12:17.339Z,68.54
2019-03-19T12:13:17.322Z,67.82
2019-03-19T12:14:17.312Z,66.58
2019-03-19T12:15:17.319Z,66.69
2019-03-19T12:16:17.290Z,66.89
2019-03-19T12:17:17.277Z,67.27
2019-03-19T12:18:17.267Z,66.66
2019-03-19T12:19:17.256Z,67.27
2019-03-19T12:20:17.259Z,67.48
2019-03-19T12:21:17.232Z,66.76
2019-03-19T12:22:17.219Z,66.11
2019-03-19T12:23:17.215Z,66.01
2019-03-19T12:24:17.197Z,66.25
2019-03-19T12:25:17.201Z,65.50
2019-03-19T12:26:17.175Z,66.11
2019-03-19T12:27:17.163Z,66.42
2019-03-19T12:28:17.151Z,65.36
2019-03-19T12:29:17.140Z,65.16
2019-03-19T12:30:22.089Z,64.61
2019-03-19T12:31:18.117Z,62.77
2019-03-19T12:32:17.111Z,63.76
2019-03-19T12:33:17.096Z,62.74
2019-03-19T12:34:17.083Z,63.22
2019-03-19T12:35:17.090Z,62.61
2019-03-19T12:36:17.066Z,61.76
2019-03-19T12:37:17.049Z,61.76
2019-03-19T12:38:17.039Z,61.52
2019-03-19T12:39:17.030Z,61.66
2019-03-19T12:40:17.035Z,60.40
2019-03-19T12:41:17.004Z,60.60
2019-03-19T12:42:16.992Z,59.48
2019-03-19T12:43:16.983Z,58.69
2019-03-19T12:44:17.000Z,59.50
2019-03-19T12:45:16.974Z,60.33
2019-03-19T12:46:16.947Z,57.87
2019-03-19T12:47:16.951Z,58.92
2019-03-19T12:48:16.924Z,59.84
2019-03-19T12:49:16.912Z,59.43
2019-03-19T12:50:16.914Z,58.72
2019-03-19T12:51:16.893Z,59.64
2019-03-19T12:52:16.879Z,59.46